sensor_id;sensor_type;location;lat;lon;timestamp;P1;durP1;ratioP1;P2;durP2;ratioP2
4630;SDS011;2328;48.170;11.602;2022-07-30T13:50:36;1.20;;;0.93;;
4630;SDS011;2328;48.170;11.602;2022-07-30T13:53:04;2.10;;;1.30;;
4630;SDS011;2328;48.170;11.602;2022-07-30T13:55:33;1.37;;;1.10;;
4630;SDS011;2328;48.170;11.602;2022-07-30T13:58:02;1.20;;;1.00;;
4630;SDS011;2328;48.170;11.602;2022-07-30T14:00:32;1.00;;;0.90;;
4630;SDS011;2328;48.170;11.602;2022-07-30T14:03:03;1.53;;;0.97;;
4630;SDS011;2328;48.170;11.602;2022-07-30T14:05:32;1.10;;;1.00;;
4630;SDS011;2328;48.170;11.602;2022-07-30T14:08:09;2.50;;;1.13;;
4630;SDS011;2328;48.170;11.602;2022-07-30T14:10:38;1.07;;;1.07;;
4630;SDS011;2328;48.170;11.602;2022-07-30T14:13:06;1.30;;;1.20;;
4630;SDS011;2328;48.170;11.602;2022-07-30T14:15:46;1.10;;;1.00;;
4630;SDS011;2328;48.170;11.602;2022-07-30T14:18:15;1.30;;;1.13;;
4630;SDS011;2328;48.170;11.602;2022-07-30T14:20:44;1.00;;;0.90;;
4630;SDS011;2328;48.170;11.602;2022-07-30T14:23:16;1.87;;;1.00;;
4630;SDS011;2328;48.170;11.602;2022-07-30T14:25:45;2.70;;;1.53;;
4630;SDS011;2328;48.170;11.602;2022-07-30T14:28:14;1.10;;;1.00;;
4630;SDS011;2328;48.170;11.602;2022-07-30T14:30:45;0.90;;;0.90;;
4630;SDS011;2328;48.170;11.602;2022-07-30T14:33:14;1.80;;;1.07;;
4630;SDS011;2328;48.170;11.602;2022-07-30T14:35:43;1.40;;;1.27;;
4630;SDS011;2328;48.170;11.602;2022-07-30T14:38:17;2.80;;;1.30;;
4630;SDS011;2328;48.170;11.602;2022-07-30T14:40:45;0.73;;;0.70;;
4630;SDS011;2328;48.170;11.602;2022-07-30T14:43:14;1.33;;;1.23;;
4630;SDS011;2328;48.170;11.602;2022-07-30T14:45:44;1.00;;;1.00;;
4630;SDS011;2328;48.170;11.602;2022-07-30T14:48:15;1.00;;;0.90;;
4630;SDS011;2328;48.170;11.602;2022-07-30T14:50:44;0.90;;;0.90;;
4630;SDS011;2328;48.170;11.602;2022-07-30T14:53:34;1.38;;;1.10;;
4630;SDS011;2328;48.170;11.602;2022-07-30T14:56:03;0.83;;;0.80;;
4630;SDS011;2328;48.170;11.602;2022-07-30T14:58:34;0.93;;;0.83;;
4630;SDS011;2328;48.170;11.602;2022-07-30T15:01:02;1.47;;;1.37;;
4630;SDS011;2328;48.170;11.602;2022-07-30T15:03:42;1.33;;;1.10;;
4630;SDS011;2328;48.170;11.602;2022-07-30T15:06:10;1.40;;;1.20;;
4630;SDS011;2328;48.170;11.602;2022-07-30T15:08:46;0.80;;;0.77;;
4630;SDS011;2328;48.170;11.602;2022-07-30T15:11:14;1.00;;;0.90;;
4630;SDS011;2328;48.170;11.602;2022-07-30T15:13:45;0.90;;;0.90;;
4630;SDS011;2328;48.170;11.602;2022-07-30T15:16:15;0.93;;;0.80;;
4630;SDS011;2328;48.170;11.602;2022-07-30T15:18:44;0.80;;;0.77;;
4630;SDS011;2328;48.170;11.602;2022-07-30T15:21:12;1.30;;;0.97;;
4630;SDS011;2328;48.170;11.602;2022-07-30T15:23:41;4.10;;;1.30;;
4630;SDS011;2328;48.170;11.602;2022-07-30T15:26:10;1.43;;;1.20;;
4630;SDS011;2328;48.170;11.602;2022-07-30T15:28:38;0.80;;;0.80;;
4630;SDS011;2328;48.170;11.602;2022-07-30T15:31:08;0.93;;;0.93;;
4630;SDS011;2328;48.170;11.602;2022-07-30T15:33:38;1.10;;;1.00;;
4630;SDS011;2328;48.170;11.602;2022-07-30T15:36:08;0.80;;;0.80;;
4630;SDS011;2328;48.170;11.602;2022-07-30T15:38:37;1.20;;;1.00;;
4630;SDS011;2328;48.170;11.602;2022-07-30T15:41:07;0.83;;;0.80;;
4630;SDS011;2328;48.170;11.602;2022-07-30T15:43:38;0.90;;;0.75;;
4630;SDS011;2328;48.170;11.602;2022-07-30T15:46:07;1.15;;;1.00;;
4630;SDS011;2328;48.170;11.602;2022-07-30T15:48:36;1.20;;;1.10;;
4630;SDS011;2328;48.170;11.602;2022-07-30T15:51:04;1.60;;;1.00;;
4630;SDS011;2328;48.170;11.602;2022-07-30T15:53:33;0.80;;;0.80;;
4630;SDS011;2328;48.170;11.602;2022-07-30T15:56:01;0.70;;;0.70;;
4630;SDS011;2328;48.170;11.602;2022-07-30T15:58:31;1.30;;;0.97;;
4630;SDS011;2328;48.170;11.602;2022-07-30T16:00:59;1.10;;;1.00;;
4630;SDS011;2328;48.170;11.602;2022-07-30T16:03:27;2.10;;;1.07;;
4630;SDS011;2328;48.170;11.602;2022-07-30T16:05:55;1.55;;;1.00;;
4630;SDS011;2328;48.170;11.602;2022-07-30T16:08:24;1.05;;;0.95;;
4630;SDS011;2328;48.170;11.602;2022-07-30T16:10:52;1.07;;;0.97;;
4630;SDS011;2328;48.170;11.602;2022-07-30T16:13:20;0.70;;;0.70;;
4630;SDS011;2328;48.170;11.602;2022-07-30T16:15:50;2.17;;;0.90;;
4630;SDS011;2328;48.170;11.602;2022-07-30T16:18:18;2.10;;;1.10;;
4630;SDS011;2328;48.170;11.602;2022-07-30T16:20:47;1.00;;;0.90;;
4630;SDS011;2328;48.170;11.602;2022-07-30T16:23:17;2.97;;;1.10;;
4630;SDS011;2328;48.170;11.602;2022-07-30T16:25:47;0.93;;;0.93;;
4630;SDS011;2328;48.170;11.602;2022-07-30T16:28:15;1.63;;;0.93;;
4630;SDS011;2328;48.170;11.602;2022-07-30T16:30:43;1.17;;;1.00;;
4630;SDS011;2328;48.170;11.602;2022-07-30T16:33:18;0.90;;;0.90;;
4630;SDS011;2328;48.170;11.602;2022-07-30T16:35:47;1.20;;;0.80;;
4630;SDS011;2328;48.170;11.602;2022-07-30T16:38:16;1.50;;;1.07;;
4630;SDS011;2328;48.170;11.602;2022-07-30T16:40:45;0.83;;;0.70;;
4630;SDS011;2328;48.170;11.602;2022-07-30T16:43:13;0.90;;;0.90;;
4630;SDS011;2328;48.170;11.602;2022-07-30T16:45:45;3.37;;;1.00;;
4630;SDS011;2328;48.170;11.602;2022-07-30T16:48:13;1.83;;;1.20;;
4630;SDS011;2328;48.170;11.602;2022-07-30T16:50:43;1.20;;;1.10;;
4630;SDS011;2328;48.170;11.602;2022-07-30T16:53:12;1.00;;;1.00;;
4630;SDS011;2328;48.170;11.602;2022-07-30T16:55:40;2.27;;;1.03;;
4630;SDS011;2328;48.170;11.602;2022-07-30T16:58:08;0.97;;;0.90;;
4630;SDS011;2328;48.170;11.602;2022-07-30T17:00:36;0.87;;;0.87;;
4630;SDS011;2328;48.170;11.602;2022-07-30T17:03:05;3.30;;;1.40;;
4630;SDS011;2328;48.170;11.602;2022-07-30T17:05:33;1.13;;;1.07;;
4630;SDS011;2328;48.170;11.602;2022-07-30T17:08:11;1.40;;;0.90;;
4630;SDS011;2328;48.170;11.602;2022-07-30T17:10:43;1.40;;;1.30;;
4630;SDS011;2328;48.170;11.602;2022-07-30T17:13:13;1.20;;;1.10;;
4630;SDS011;2328;48.170;11.602;2022-07-30T17:15:41;0.90;;;0.80;;
4630;SDS011;2328;48.170;11.602;2022-07-30T17:18:11;0.90;;;0.90;;
4630;SDS011;2328;48.170;11.602;2022-07-30T17:20:40;1.43;;;1.33;;
4630;SDS011;2328;48.170;11.602;2022-07-30T17:23:08;1.10;;;1.00;;
4630;SDS011;2328;48.170;11.602;2022-07-30T17:25:37;1.50;;;1.10;;
4630;SDS011;2328;48.170;11.602;2022-07-30T17:28:06;0.80;;;0.80;;
4630;SDS011;2328;48.170;11.602;2022-07-30T17:30:34;1.03;;;0.93;;
4630;SDS011;2328;48.170;11.602;2022-07-30T17:33:03;2.60;;;1.13;;
4630;SDS011;2328;48.170;11.602;2022-07-30T17:35:31;0.80;;;0.80;;
4630;SDS011;2328;48.170;11.602;2022-07-30T17:38:00;1.40;;;1.30;;
4630;SDS011;2328;48.170;11.602;2022-07-30T17:40:28;1.30;;;1.20;;
4630;SDS011;2328;48.170;11.602;2022-07-30T17:42:59;1.00;;;0.93;;
4630;SDS011;2328;48.170;11.602;2022-07-30T17:45:30;1.40;;;1.30;;
4630;SDS011;2328;48.170;11.602;2022-07-30T17:48:01;2.20;;;1.07;;
4630;SDS011;2328;48.170;11.602;2022-07-30T17:50:30;1.10;;;1.00;;
4630;SDS011;2328;48.170;11.602;2022-07-30T17:52:59;1.33;;;1.23;;
4630;SDS011;2328;48.170;11.602;2022-07-30T17:55:29;1.30;;;1.20;;
4630;SDS011;2328;48.170;11.602;2022-07-30T17:58:02;1.20;;;1.10;;
4630;SDS011;2328;48.170;11.602;2022-07-30T18:00:31;1.37;;;1.10;;
4630;SDS011;2328;48.170;11.602;2022-07-30T18:03:01;3.03;;;0.80;;
4630;SDS011;2328;48.170;11.602;2022-07-30T18:05:30;1.13;;;1.00;;
4630;SDS011;2328;48.170;11.602;2022-07-30T18:07:58;1.10;;;1.00;;
4630;SDS011;2328;48.170;11.602;2022-07-30T18:10:26;0.90;;;0.90;;
4630;SDS011;2328;48.170;11.602;2022-07-30T18:12:56;1.37;;;1.07;;
4630;SDS011;2328;48.170;11.602;2022-07-30T18:15:45;1.90;;;1.27;;
4630;SDS011;2328;48.170;11.602;2022-07-30T18:18:14;1.90;;;1.57;;
4630;SDS011;2328;48.170;11.602;2022-07-30T18:20:44;1.53;;;1.17;;
4630;SDS011;2328;48.170;11.602;2022-07-30T18:23:13;1.53;;;1.43;;
4630;SDS011;2328;48.170;11.602;2022-07-30T18:25:45;2.23;;;1.10;;
4630;SDS011;2328;48.170;11.602;2022-07-30T18:28:19;1.73;;;1.63;;
4630;SDS011;2328;48.170;11.602;2022-07-30T18:30:49;1.40;;;1.30;;
4630;SDS011;2328;48.170;11.602;2022-07-30T18:33:18;1.07;;;1.00;;
4630;SDS011;2328;48.170;11.602;2022-07-30T18:35:46;1.23;;;1.10;;
4630;SDS011;2328;48.170;11.602;2022-07-30T18:38:15;1.40;;;1.30;;
4630;SDS011;2328;48.170;11.602;2022-07-30T18:40:43;1.50;;;1.40;;
4630;SDS011;2328;48.170;11.602;2022-07-30T18:43:23;1.23;;;1.13;;
4630;SDS011;2328;48.170;11.602;2022-07-30T18:45:53;1.42;;;1.20;;
4630;SDS011;2328;48.170;11.602;2022-07-30T18:48:22;1.30;;;1.20;;
4630;SDS011;2328;48.170;11.602;2022-07-30T18:50:50;2.50;;;1.50;;
4630;SDS011;2328;48.170;11.602;2022-07-30T18:53:20;1.53;;;1.20;;
4630;SDS011;2328;48.170;11.602;2022-07-30T18:55:48;2.50;;;1.20;;
4630;SDS011;2328;48.170;11.602;2022-07-30T18:58:16;2.00;;;1.60;;
4630;SDS011;2328;48.170;11.602;2022-07-30T19:00:45;1.60;;;1.50;;
4630;SDS011;2328;48.170;11.602;2022-07-30T19:03:14;5.13;;;1.57;;
4630;SDS011;2328;48.170;11.602;2022-07-30T19:05:48;2.10;;;1.90;;
4630;SDS011;2328;48.170;11.602;2022-07-30T19:08:16;2.77;;;1.90;;
4630;SDS011;2328;48.170;11.602;2022-07-30T19:10:44;8.00;;;1.87;;
4630;SDS011;2328;48.170;11.602;2022-07-30T19:13:12;2.27;;;2.07;;
4630;SDS011;2328;48.170;11.602;2022-07-30T19:15:41;3.43;;;1.73;;
4630;SDS011;2328;48.170;11.602;2022-07-30T19:18:09;1.50;;;1.33;;
4630;SDS011;2328;48.170;11.602;2022-07-30T19:20:38;1.33;;;1.23;;
4630;SDS011;2328;48.170;11.602;2022-07-30T19:23:07;1.30;;;1.20;;
4630;SDS011;2328;48.170;11.602;2022-07-30T19:25:35;1.50;;;1.40;;
4630;SDS011;2328;48.170;11.602;2022-07-30T19:28:04;1.40;;;1.13;;
4630;SDS011;2328;48.170;11.602;2022-07-30T19:30:33;2.80;;;1.23;;
4630;SDS011;2328;48.170;11.602;2022-07-30T19:33:01;2.43;;;1.67;;
4630;SDS011;2328;48.170;11.602;2022-07-30T19:35:30;1.77;;;1.50;;
4630;SDS011;2328;48.170;11.602;2022-07-30T19:37:59;2.00;;;1.40;;
4630;SDS011;2328;48.170;11.602;2022-07-30T19:40:28;2.23;;;1.43;;
4630;SDS011;2328;48.170;11.602;2022-07-30T19:42:58;1.33;;;1.23;;
4630;SDS011;2328;48.170;11.602;2022-07-30T19:45:35;1.97;;;1.40;;
4630;SDS011;2328;48.170;11.602;2022-07-30T19:48:13;2.50;;;1.40;;
4630;SDS011;2328;48.170;11.602;2022-07-30T19:50:56;6.33;;;1.93;;
4630;SDS011;2328;48.170;11.602;2022-07-30T19:53:28;2.10;;;1.77;;
4630;SDS011;2328;48.170;11.602;2022-07-30T19:55:59;1.80;;;1.70;;
4630;SDS011;2328;48.170;11.602;2022-07-30T19:58:35;1.73;;;1.37;;
4630;SDS011;2328;48.170;11.602;2022-07-30T20:01:05;1.73;;;1.63;;
4630;SDS011;2328;48.170;11.602;2022-07-30T20:03:34;1.70;;;1.60;;
4630;SDS011;2328;48.170;11.602;2022-07-30T20:06:04;2.63;;;1.37;;
4630;SDS011;2328;48.170;11.602;2022-07-30T20:08:34;2.17;;;1.63;;
4630;SDS011;2328;48.170;11.602;2022-07-30T20:11:03;1.90;;;1.80;;
4630;SDS011;2328;48.170;11.602;2022-07-30T20:13:33;1.47;;;1.37;;
4630;SDS011;2328;48.170;11.602;2022-07-30T20:16:11;1.97;;;1.77;;
4630;SDS011;2328;48.170;11.602;2022-07-30T20:18:40;1.57;;;1.47;;
4630;SDS011;2328;48.170;11.602;2022-07-30T20:21:29;2.67;;;2.23;;
4630;SDS011;2328;48.170;11.602;2022-07-30T20:24:20;2.27;;;2.10;;
4630;SDS011;2328;48.170;11.602;2022-07-30T20:26:48;2.13;;;1.83;;
4630;SDS011;2328;48.170;11.602;2022-07-30T20:29:16;2.60;;;2.23;;
4630;SDS011;2328;48.170;11.602;2022-07-30T20:32:05;1.93;;;1.83;;
4630;SDS011;2328;48.170;11.602;2022-07-30T20:34:34;4.10;;;2.40;;
4630;SDS011;2328;48.170;11.602;2022-07-30T20:37:05;2.90;;;2.03;;
4630;SDS011;2328;48.170;11.602;2022-07-30T20:39:49;2.73;;;2.30;;
4630;SDS011;2328;48.170;11.602;2022-07-30T20:42:20;2.43;;;2.23;;
4630;SDS011;2328;48.170;11.602;2022-07-30T20:44:49;4.97;;;2.80;;
4630;SDS011;2328;48.170;11.602;2022-07-30T20:47:18;2.03;;;1.90;;
4630;SDS011;2328;48.170;11.602;2022-07-30T20:50:08;3.83;;;2.90;;
4630;SDS011;2328;48.170;11.602;2022-07-30T20:52:39;2.00;;;1.90;;
4630;SDS011;2328;48.170;11.602;2022-07-30T20:55:14;3.90;;;2.67;;
